createdAt,value
2022-10-20T00:02:18.530Z,44.30
2022-10-20T00:04:46.129Z,44.20
2022-10-20T00:07:12.947Z,44.20
2022-10-20T00:09:39.761Z,44.20
2022-10-20T00:12:06.680Z,44.20
2022-10-20T00:14:34.082Z,44.10
2022-10-20T00:17:01.481Z,44.00
2022-10-20T00:19:28.677Z,44.00
2022-10-20T00:21:55.414Z,43.90
2022-10-20T00:24:22.273Z,43.90
2022-10-20T00:26:49.000Z,43.80
2022-10-20T00:29:15.756Z,43.80
2022-10-20T00:31:43.538Z,43.80
2022-10-20T00:34:10.580Z,43.70
2022-10-20T00:36:37.474Z,44.40
2022-10-20T00:39:05.612Z,43.70
2022-10-20T00:41:33.110Z,43.60
2022-10-20T00:44:02.412Z,43.60
2022-10-20T00:46:42.225Z,43.60
2022-10-20T00:49:22.094Z,43.60
2022-10-20T00:51:50.730Z,43.50
2022-10-20T00:54:22.421Z,43.50
2022-10-20T00:56:49.892Z,43.50
2022-10-20T00:59:21.734Z,43.40
2022-10-20T01:01:49.589Z,43.40
2022-10-20T01:04:17.614Z,43.40
2022-10-20T01:06:44.355Z,43.40
2022-10-20T01:09:11.762Z,43.30
2022-10-20T01:11:54.634Z,43.30
2022-10-20T01:15:01.798Z,43.20
2022-10-20T01:17:42.937Z,43.10
2022-10-20T01:20:33.533Z,43.00
2022-10-20T01:23:19.296Z,43.00
2022-10-20T01:26:09.494Z,42.90
2022-10-20T01:28:47.507Z,42.80
2022-10-20T01:31:36.386Z,42.80
2022-10-20T01:34:18.609Z,42.70
2022-10-20T01:36:58.911Z,42.60
2022-10-20T01:39:38.884Z,42.60
2022-10-20T01:42:16.113Z,42.50
2022-10-20T01:44:43.971Z,42.50
2022-10-20T01:47:12.994Z,42.50
2022-10-20T01:49:43.701Z,42.50
2022-10-20T01:52:12.830Z,42.60
2022-10-20T01:54:40.041Z,42.60
2022-10-20T01:57:19.167Z,42.60
2022-10-20T02:00:17.846Z,42.70
2022-10-20T02:02:56.541Z,42.80
2022-10-20T02:05:41.439Z,42.90
2022-10-20T02:08:37.317Z,42.80
2022-10-20T02:11:07.203Z,42.70
2022-10-20T02:13:37.257Z,42.50
2022-10-20T02:16:10.459Z,42.30
2022-10-20T02:18:42.774Z,42.10
2022-10-20T02:21:11.099Z,41.90
2022-10-20T02:23:42.366Z,41.60
2022-10-20T02:26:13.428Z,41.40
2022-10-20T02:28:44.686Z,41.20
2022-10-20T02:31:11.962Z,41.00
2022-10-20T02:33:39.932Z,40.80
2022-10-20T02:36:15.515Z,40.60
2022-10-20T02:38:42.461Z,40.50
2022-10-20T02:41:09.225Z,40.40
2022-10-20T02:43:36.252Z,40.40
2022-10-20T02:46:03.155Z,40.40
2022-10-20T02:48:29.984Z,40.50
2022-10-20T02:50:57.636Z,40.40
2022-10-20T02:53:24.449Z,40.40
2022-10-20T02:55:51.265Z,40.40
2022-10-20T02:58:18.034Z,40.40
2022-10-20T03:00:44.866Z,40.30
2022-10-20T03:03:11.598Z,40.20
2022-10-20T03:05:44.315Z,40.20
2022-10-20T03:08:12.105Z,40.10
2022-10-20T03:10:38.959Z,40.10
2022-10-20T03:13:06.131Z,40.10
2022-10-20T03:15:33.129Z,40.00
2022-10-20T03:17:59.867Z,39.90
2022-10-20T03:20:26.869Z,39.90
2022-10-20T03:22:53.627Z,39.90
2022-10-20T03:25:20.485Z,39.90
2022-10-20T03:27:47.222Z,40.00
2022-10-20T03:30:14.065Z,40.00
2022-10-20T03:32:40.820Z,40.00
2022-10-20T03:35:08.041Z,40.00
2022-10-20T03:37:34.846Z,40.00
2022-10-20T03:40:01.673Z,40.00
2022-10-20T03:42:28.673Z,40.00
2022-10-20T03:44:55.638Z,39.90
2022-10-20T03:47:22.391Z,39.90
2022-10-20T03:49:49.175Z,39.90
2022-10-20T03:52:15.959Z,39.80
2022-10-20T03:54:42.748Z,39.90
2022-10-20T03:57:09.742Z,39.90
2022-10-20T03:59:36.531Z,39.90
2022-10-20T04:02:03.358Z,40.00
2022-10-20T04:04:30.119Z,40.00
2022-10-20T04:06:56.900Z,40.00
2022-10-20T04:09:23.691Z,39.90
2022-10-20T04:11:50.453Z,39.90
2022-10-20T04:14:17.254Z,39.90
2022-10-20T04:16:44.019Z,40.00
2022-10-20T04:19:10.773Z,39.90
2022-10-20T04:21:37.613Z,39.90
2022-10-20T04:24:05.292Z,39.80
2022-10-20T04:26:32.050Z,39.70
2022-10-20T04:28:58.807Z,39.70
2022-10-20T04:31:25.569Z,39.40
2022-10-20T04:33:52.316Z,39.30
2022-10-20T04:36:19.132Z,39.10
2022-10-20T04:38:45.916Z,38.90
2022-10-20T04:41:12.674Z,39.00
2022-10-20T04:43:39.537Z,39.00
2022-10-20T04:46:08.570Z,39.00
2022-10-20T04:48:37.007Z,39.10
2022-10-20T04:51:09.624Z,39.20
2022-10-20T04:53:36.812Z,39.30
2022-10-20T04:56:05.511Z,39.40
2022-10-20T04:58:32.664Z,39.40
2022-10-20T05:01:07.999Z,39.70
2022-10-20T05:03:36.103Z,39.70
2022-10-20T05:06:10.657Z,39.80
2022-10-20T05:08:38.793Z,39.70
2022-10-20T05:11:06.586Z,39.60
2022-10-20T05:13:33.741Z,39.50
2022-10-20T05:16:00.535Z,39.40
2022-10-20T05:18:27.836Z,39.30
2022-10-20T05:21:08.346Z,39.30
2022-10-20T05:23:36.343Z,39.10
2022-10-20T05:26:08.527Z,39.00
2022-10-20T05:28:35.478Z,38.90
2022-10-20T05:31:04.118Z,38.70
2022-10-20T05:33:31.074Z,38.50
2022-10-20T05:35:57.915Z,38.50
2022-10-20T05:38:24.798Z,38.50
2022-10-20T05:40:51.578Z,38.40
2022-10-20T05:43:18.343Z,38.30
2022-10-20T05:45:45.087Z,38.40
2022-10-20T05:48:11.850Z,38.40
2022-10-20T05:50:38.667Z,38.50
2022-10-20T05:53:05.476Z,38.60
2022-10-20T05:55:32.975Z,38.70
2022-10-20T05:57:59.778Z,38.80
2022-10-20T06:00:30.974Z,38.90
2022-10-20T06:02:57.944Z,38.80
2022-10-20T06:05:24.777Z,38.70
2022-10-20T06:07:54.239Z,38.70
2022-10-20T06:10:21.027Z,38.60
2022-10-20T06:12:47.787Z,38.60
2022-10-20T06:15:14.577Z,38.60
2022-10-20T06:17:41.352Z,38.60
2022-10-20T06:20:08.476Z,38.70
2022-10-20T06:22:35.695Z,38.60
2022-10-20T06:25:02.684Z,38.70
2022-10-20T06:27:30.073Z,38.60
2022-10-20T06:29:56.840Z,38.60
2022-10-20T06:32:23.641Z,38.60
2022-10-20T06:34:50.384Z,38.60
2022-10-20T06:37:17.142Z,38.70
2022-10-20T06:39:43.920Z,38.70
2022-10-20T06:42:12.091Z,38.70
2022-10-20T06:44:39.500Z,38.50
2022-10-20T06:47:10.125Z,38.50
2022-10-20T06:49:36.996Z,38.50
2022-10-20T06:52:04.105Z,38.60
2022-10-20T06:54:31.054Z,38.70
2022-10-20T06:56:57.809Z,38.70
2022-10-20T06:59:25.195Z,38.80
2022-10-20T07:01:52.861Z,38.90
2022-10-20T07:04:19.712Z,38.80
2022-10-20T07:06:48.020Z,38.80
2022-10-20T07:09:18.157Z,38.90
2022-10-20T07:11:45.487Z,38.90
2022-10-20T07:14:13.761Z,39.00
2022-10-20T07:16:40.585Z,39.10
2022-10-20T07:19:07.444Z,39.20
2022-10-20T07:21:39.201Z,39.40
2022-10-20T07:24:09.542Z,39.50
2022-10-20T07:26:38.696Z,39.60
2022-10-20T07:29:05.731Z,39.60
2022-10-20T07:31:38.374Z,39.70
2022-10-20T07:34:13.223Z,39.70
2022-10-20T07:36:43.236Z,39.70
2022-10-20T07:39:12.430Z,39.70
2022-10-20T07:41:40.065Z,39.70
2022-10-20T07:44:07.540Z,39.70
2022-10-20T07:46:34.875Z,39.60
2022-10-20T07:49:43.027Z,39.60
2022-10-20T07:51:48.576Z,39.60
2022-10-20T07:54:17.744Z,39.60
2022-10-20T07:56:46.061Z,39.60
2022-10-20T07:59:13.325Z,39.70
2022-10-20T08:01:40.396Z,40.40
2022-10-20T08:04:07.304Z,40.00
2022-10-20T08:06:34.362Z,40.10
2022-10-20T08:09:01.615Z,40.10
2022-10-20T08:11:28.532Z,40.10
2022-10-20T08:13:55.304Z,40.10
2022-10-20T08:16:27.635Z,40.10
2022-10-20T08:20:21.416Z,40.10
2022-10-20T08:21:46.155Z,40.10
2022-10-20T08:24:12.892Z,40.10
2022-10-20T08:26:39.650Z,40.80
2022-10-20T08:29:06.578Z,40.00
2022-10-20T08:31:33.382Z,40.00
2022-10-20T08:34:00.176Z,39.90
2022-10-20T08:36:29.938Z,40.00
2022-10-20T08:39:03.374Z,40.00
2022-10-20T08:41:55.435Z,40.10
2022-10-20T08:44:30.188Z,40.20
2022-10-20T08:46:57.788Z,40.10
2022-10-20T08:49:31.703Z,40.20
2022-10-20T08:52:01.350Z,40.20
2022-10-20T08:54:28.452Z,40.20
2022-10-20T08:56:55.281Z,40.20
2022-10-20T08:59:33.370Z,40.10
2022-10-20T09:02:01.068Z,40.10
2022-10-20T09:04:33.980Z,40.10
2022-10-20T09:07:05.724Z,40.00
2022-10-20T09:09:33.753Z,40.00
2022-10-20T09:12:06.251Z,39.90
2022-10-20T09:14:36.118Z,39.80
2022-10-20T09:17:05.298Z,39.70
2022-10-20T09:19:36.211Z,40.40
2022-10-20T09:22:07.560Z,39.80
2022-10-20T09:24:35.741Z,39.60
2022-10-20T09:27:21.395Z,39.40
2022-10-20T09:29:48.344Z,39.40
2022-10-20T09:32:48.647Z,39.30
2022-10-20T09:35:18.736Z,39.40
2022-10-20T09:37:56.808Z,39.30
2022-10-20T09:40:26.227Z,39.20
2022-10-20T09:42:56.105Z,39.10
2022-10-20T09:45:29.163Z,39.20
2022-10-20T09:48:07.952Z,39.10
2022-10-20T09:50:40.449Z,39.10
2022-10-20T09:53:19.731Z,39.00
2022-10-20T09:55:48.713Z,39.00
2022-10-20T09:58:33.432Z,38.70
2022-10-20T10:01:07.239Z,38.80
2022-10-20T10:03:58.444Z,38.80
2022-10-20T10:06:39.074Z,38.80
2022-10-20T10:09:31.117Z,38.80
2022-10-20T10:12:12.719Z,38.60
2022-10-20T10:14:55.816Z,38.60
2022-10-20T10:17:49.645Z,38.60
2022-10-20T10:20:16.612Z,38.80
2022-10-20T10:22:44.533Z,38.80
2022-10-20T10:25:26.928Z,38.90
2022-10-20T10:28:08.635Z,39.00
2022-10-20T10:30:37.364Z,39.00
2022-10-20T10:33:25.908Z,39.10
2022-10-20T10:35:53.397Z,39.20
2022-10-20T10:38:20.645Z,39.20
2022-10-20T10:41:14.161Z,39.30
2022-10-20T10:44:02.828Z,39.40
2022-10-20T10:46:48.943Z,39.60
2022-10-20T10:49:30.494Z,39.60
2022-10-20T10:52:14.593Z,39.50
2022-10-20T10:54:57.849Z,39.50
2022-10-20T10:57:28.198Z,39.60
2022-10-20T10:59:57.287Z,39.80
2022-10-20T11:02:42.119Z,39.70
2022-10-20T11:05:23.116Z,39.80
2022-10-20T11:08:08.733Z,39.90
2022-10-20T11:10:41.490Z,39.90
2022-10-20T11:13:38.819Z,39.90
2022-10-20T11:16:15.321Z,39.90
2022-10-20T11:19:01.479Z,39.80
2022-10-20T11:21:45.876Z,39.60
2022-10-20T11:24:31.485Z,39.50
2022-10-20T11:27:09.714Z,39.30
2022-10-20T11:29:48.375Z,39.10
2022-10-20T11:32:15.108Z,39.10
2022-10-20T11:34:47.768Z,39.00
2022-10-20T11:37:25.016Z,38.90
2022-10-20T11:40:27.727Z,38.80
2022-10-20T11:43:17.490Z,38.70
2022-10-20T11:46:03.804Z,38.60
2022-10-20T11:48:34.965Z,38.50
2022-10-20T11:51:01.722Z,38.50
2022-10-20T11:53:39.665Z,38.40
2022-10-20T11:56:39.400Z,38.40
2022-10-20T11:59:17.677Z,38.40
2022-10-20T12:02:14.022Z,38.50
2022-10-20T12:04:52.491Z,38.80
2022-10-20T12:08:11.016Z,39.00
2022-10-20T12:11:10.237Z,39.00
2022-10-20T12:13:56.864Z,39.70
2022-10-20T12:16:42.511Z,38.90
2022-10-20T12:19:20.243Z,39.00
2022-10-20T12:22:06.933Z,39.10
2022-10-20T12:24:37.867Z,39.00
2022-10-20T12:27:17.811Z,38.90
2022-10-20T12:29:44.549Z,39.10
2022-10-20T12:32:36.250Z,39.20
2022-10-20T12:35:12.508Z,39.40
2022-10-20T12:37:42.238Z,39.50
2022-10-20T12:40:11.598Z,39.50
2022-10-20T12:42:45.986Z,39.50
2022-10-20T12:45:18.875Z,39.70
2022-10-20T12:47:54.924Z,39.80
2022-10-20T12:50:47.060Z,39.80
2022-10-20T12:53:28.608Z,40.00
2022-10-20T12:56:07.224Z,40.10
2022-10-20T12:59:08.862Z,40.20
2022-10-20T13:02:20.677Z,40.10
2022-10-20T13:05:13.387Z,40.10
2022-10-20T13:07:49.034Z,40.00
2022-10-20T13:10:28.091Z,40.00
2022-10-20T13:13:20.409Z,39.90
2022-10-20T13:15:53.289Z,39.90
2022-10-20T13:18:32.820Z,39.80
2022-10-20T13:21:19.578Z,39.80
2022-10-20T13:24:05.559Z,39.80
2022-10-20T13:26:50.175Z,39.60
2022-10-20T13:29:22.039Z,39.60
2022-10-20T13:35:02.364Z,39.60
2022-10-20T13:37:50.423Z,39.80
2022-10-20T13:40:26.690Z,39.80
2022-10-20T13:43:10.892Z,40.00
2022-10-20T13:45:49.999Z,40.10
2022-10-20T13:48:19.925Z,40.40
2022-10-20T13:51:00.187Z,40.40
2022-10-20T13:53:33.002Z,40.60
2022-10-20T13:56:20.175Z,40.70
2022-10-20T13:59:04.526Z,40.80
2022-10-20T14:01:35.237Z,40.90
2022-10-20T14:04:02.432Z,41.00
2022-10-20T14:06:38.562Z,41.10
2022-10-20T14:09:20.596Z,41.20
2022-10-20T14:11:51.561Z,41.20
2022-10-20T14:14:21.995Z,41.30
2022-10-20T14:16:57.019Z,41.40
2022-10-20T14:19:28.254Z,41.40
2022-10-20T14:21:59.862Z,41.40
2022-10-20T14:24:32.300Z,41.50
2022-10-20T14:27:01.391Z,41.50
2022-10-20T14:29:30.933Z,41.50
2022-10-20T14:31:58.518Z,41.50
2022-10-20T14:34:35.678Z,41.40
2022-10-20T14:37:04.244Z,41.30
2022-10-20T14:39:39.065Z,41.90
2022-10-20T14:42:24.489Z,41.10
2022-10-20T14:44:53.252Z,41.00
2022-10-20T14:47:20.772Z,40.90
2022-10-20T14:49:52.327Z,40.80
2022-10-20T14:52:21.770Z,40.70
2022-10-20T14:54:51.346Z,40.70
2022-10-20T14:57:18.171Z,40.60
2022-10-20T14:59:55.992Z,40.60
2022-10-20T15:02:30.309Z,40.70
2022-10-20T15:05:17.229Z,40.70
2022-10-20T15:07:44.074Z,40.70
2022-10-20T15:10:16.220Z,40.90
2022-10-20T15:12:45.702Z,41.00
2022-10-20T15:15:12.435Z,41.10
2022-10-20T15:17:43.677Z,41.30
2022-10-20T15:20:33.455Z,41.40
2022-10-20T15:23:17.731Z,41.60
2022-10-20T15:26:03.412Z,41.70
2022-10-20T15:28:46.840Z,41.90
2022-10-20T15:31:13.558Z,41.60
2022-10-20T15:33:41.263Z,42.30
2022-10-20T15:36:16.794Z,42.50
2022-10-20T15:38:43.726Z,42.80
2022-10-20T15:41:15.230Z,42.90
2022-10-20T15:43:42.336Z,43.00
2022-10-20T15:46:11.821Z,43.00
2022-10-20T15:48:38.753Z,43.80
2022-10-20T15:51:12.174Z,43.00
2022-10-20T15:53:38.927Z,43.10
2022-10-20T15:56:06.694Z,43.10
2022-10-20T15:58:38.856Z,43.00
2022-10-20T16:01:07.773Z,42.90
2022-10-20T16:03:35.765Z,42.90
2022-10-20T16:06:02.510Z,42.80
2022-10-20T16:08:29.615Z,42.70
2022-10-20T16:10:56.804Z,42.70
2022-10-20T16:13:23.529Z,42.60
2022-10-20T16:15:50.259Z,42.50
2022-10-20T16:18:17.043Z,42.40
2022-10-20T16:20:43.867Z,42.40
2022-10-20T16:23:10.696Z,42.30
2022-10-20T16:25:40.496Z,42.30
2022-10-20T16:28:07.747Z,42.10
2022-10-20T16:30:34.710Z,42.10
2022-10-20T16:33:01.537Z,42.00
2022-10-20T16:35:28.613Z,41.90
2022-10-20T16:37:55.565Z,41.80
2022-10-20T16:40:22.358Z,41.80
2022-10-20T16:42:49.129Z,41.70
2022-10-20T16:45:16.105Z,41.70
2022-10-20T16:47:42.952Z,41.70
2022-10-20T16:50:09.915Z,41.70
2022-10-20T16:52:36.659Z,41.70
2022-10-20T16:55:03.645Z,41.80
2022-10-20T16:57:38.055Z,41.80
2022-10-20T17:00:07.494Z,41.90
2022-10-20T17:02:36.270Z,42.00
2022-10-20T17:05:06.656Z,42.10
2022-10-20T17:07:36.298Z,42.10
2022-10-20T17:10:03.537Z,42.20
2022-10-20T17:12:30.603Z,42.20
2022-10-20T17:14:57.573Z,42.30
2022-10-20T17:17:24.424Z,42.30
2022-10-20T17:19:51.276Z,42.20
2022-10-20T17:22:18.028Z,42.20
2022-10-20T17:24:44.842Z,42.20
2022-10-20T17:27:11.571Z,42.10
2022-10-20T17:29:38.399Z,42.10
2022-10-20T17:32:05.425Z,42.00
2022-10-20T17:34:32.326Z,42.00
2022-10-20T17:36:59.073Z,42.10
2022-10-20T17:39:25.908Z,42.10
2022-10-20T17:41:52.644Z,42.10
2022-10-20T17:44:19.524Z,42.20
2022-10-20T17:46:46.290Z,42.20
2022-10-20T17:49:13.133Z,42.10
2022-10-20T17:51:39.963Z,42.10
2022-10-20T17:54:06.865Z,42.00
2022-10-20T17:56:36.158Z,42.00
2022-10-20T17:59:05.510Z,41.90
2022-10-20T18:01:38.201Z,41.90
2022-10-20T18:04:11.615Z,41.90
2022-10-20T18:06:39.116Z,41.90
2022-10-20T18:09:13.029Z,41.90
2022-10-20T18:11:43.047Z,42.00
2022-10-20T18:14:10.065Z,42.00
2022-10-20T18:16:38.195Z,42.10
2022-10-20T18:19:05.770Z,42.10
2022-10-20T18:21:32.933Z,42.20
2022-10-20T18:24:05.369Z,42.90
2022-10-20T18:26:34.457Z,42.30
2022-10-20T18:29:02.074Z,42.30
2022-10-20T18:31:31.501Z,42.40
2022-10-20T18:34:05.697Z,42.40
2022-10-20T18:36:34.288Z,42.40
2022-10-20T18:39:01.757Z,42.40
2022-10-20T18:41:31.354Z,42.40
2022-10-20T18:44:00.112Z,42.40
2022-10-20T18:46:31.779Z,42.40
2022-10-20T18:49:00.115Z,42.50
2022-10-20T18:51:27.496Z,42.50
2022-10-20T18:53:56.976Z,42.60
2022-10-20T18:56:26.236Z,42.60
2022-10-20T18:58:55.692Z,42.70
2022-10-20T19:01:27.936Z,42.70
2022-10-20T19:03:56.477Z,42.80
2022-10-20T19:06:26.254Z,42.80
2022-10-20T19:08:54.922Z,42.80
2022-10-20T19:11:23.877Z,42.90
2022-10-20T19:13:51.502Z,42.80
2022-10-20T19:16:21.237Z,42.90
2022-10-20T19:18:50.502Z,43.00
2022-10-20T19:21:18.595Z,43.10
2022-10-20T19:24:13.915Z,43.10
2022-10-20T19:26:52.827Z,43.20
2022-10-20T19:29:30.003Z,43.20
2022-10-20T19:31:59.507Z,43.30
2022-10-20T19:34:29.649Z,43.30
2022-10-20T19:36:57.161Z,43.30
2022-10-20T19:39:27.340Z,43.30
2022-10-20T19:41:56.231Z,43.40
2022-10-20T19:44:23.351Z,43.40
2022-10-20T19:46:54.011Z,43.40
2022-10-20T19:49:22.556Z,43.50
2022-10-20T19:51:50.031Z,43.60
2022-10-20T19:54:17.336Z,43.60
2022-10-20T19:56:44.700Z,43.60
2022-10-20T19:59:12.332Z,43.70
2022-10-20T20:01:39.233Z,43.70
2022-10-20T20:04:06.505Z,43.80
2022-10-20T20:06:34.773Z,43.90
2022-10-20T20:09:04.531Z,43.90
2022-10-20T20:11:31.776Z,44.00
2022-10-20T20:14:06.668Z,44.70
2022-10-20T20:16:34.042Z,44.00
2022-10-20T20:19:00.885Z,44.00
2022-10-20T20:21:27.984Z,44.00
2022-10-20T20:24:00.941Z,44.10
2022-10-20T20:26:34.415Z,44.20
2022-10-20T20:29:01.498Z,44.30
2022-10-20T20:31:29.177Z,44.20
2022-10-20T20:33:56.966Z,44.30
2022-10-20T20:36:27.044Z,44.30
2022-10-20T20:38:57.349Z,44.40
2022-10-20T20:41:26.557Z,44.40
2022-10-20T20:43:53.996Z,44.40
2022-10-20T20:46:22.930Z,44.30
2022-10-20T20:48:50.169Z,44.30
2022-10-20T20:51:17.403Z,44.30
2022-10-20T20:53:44.195Z,44.30
2022-10-20T20:56:14.388Z,44.40
2022-10-20T20:58:42.113Z,44.40
2022-10-20T21:01:14.221Z,44.40
2022-10-20T21:03:41.572Z,44.40
2022-10-20T21:06:16.282Z,44.40
2022-10-20T21:08:46.347Z,44.50
2022-10-20T21:11:26.786Z,44.80
2022-10-20T21:13:55.133Z,44.70
2022-10-20T21:16:28.489Z,44.70
2022-10-20T21:18:57.781Z,44.70
2022-10-20T21:21:27.656Z,44.80
2022-10-20T21:23:57.737Z,44.90
2022-10-20T21:26:25.586Z,44.90
2022-10-20T21:28:53.071Z,45.00
2022-10-20T21:31:22.066Z,45.00
2022-10-20T21:34:07.065Z,45.00
2022-10-20T21:36:35.522Z,45.00
2022-10-20T21:39:06.020Z,45.10
2022-10-20T21:41:34.843Z,45.00
2022-10-20T21:44:03.091Z,45.00
2022-10-20T21:46:47.218Z,45.00
2022-10-20T21:49:20.381Z,44.90
2022-10-20T21:51:50.567Z,44.90
2022-10-20T21:56:48.722Z,44.90
2022-10-20T21:59:19.855Z,44.80
2022-10-20T22:01:48.101Z,44.90
2022-10-20T22:04:15.761Z,44.90
2022-10-20T22:06:42.693Z,44.80
2022-10-20T22:09:10.378Z,44.80
2022-10-20T22:11:44.085Z,44.90
2022-10-20T22:14:11.628Z,44.80
2022-10-20T22:16:41.110Z,44.80
2022-10-20T22:19:14.323Z,44.80
2022-10-20T22:21:43.694Z,44.80
2022-10-20T22:24:11.002Z,44.80
2022-10-20T22:26:38.199Z,44.80
2022-10-20T22:29:06.574Z,44.80
2022-10-20T22:31:33.378Z,44.90
2022-10-20T22:34:00.143Z,44.90
2022-10-20T22:36:27.456Z,44.90
2022-10-20T22:38:54.609Z,44.90
2022-10-20T22:41:21.418Z,44.90
2022-10-20T22:43:48.349Z,45.00
2022-10-20T22:46:18.448Z,45.00
2022-10-20T22:48:46.329Z,44.90
2022-10-20T22:51:13.959Z,45.00
2022-10-20T22:53:41.275Z,44.90
2022-10-20T22:56:10.546Z,44.90
2022-10-20T22:58:38.046Z,45.00
2022-10-20T23:01:16.894Z,45.00
2022-10-20T23:03:44.604Z,45.00
2022-10-20T23:06:16.920Z,45.00
2022-10-20T23:08:49.460Z,45.00
2022-10-20T23:11:17.148Z,45.00
2022-10-20T23:13:44.392Z,45.00
2022-10-20T23:16:11.439Z,45.10
2022-10-20T23:18:38.664Z,45.10
2022-10-20T23:21:06.056Z,45.10
2022-10-20T23:23:36.223Z,45.20
2022-10-20T23:26:04.772Z,45.20
2022-10-20T23:28:32.653Z,45.20
2022-10-20T23:31:16.483Z,46.00
2022-10-20T23:33:45.163Z,45.20
2022-10-20T23:36:13.822Z,45.30
2022-10-20T23:38:41.903Z,45.30
2022-10-20T23:41:09.572Z,45.30
2022-10-20T23:46:08.863Z,45.30
2022-10-20T23:48:36.021Z,45.30
2022-10-20T23:51:02.880Z,45.20
2022-10-20T23:53:29.776Z,45.20
2022-10-20T23:55:56.806Z,45.20
2022-10-20T23:58:23.657Z,45.20
